sensor_id;sensor_type;location;lat;lon;timestamp;pressure;altitude;pressure_sealevel;temperature;humidity
67397;BME280;57728;50.448;18.824;2023-03-19T00:00:13;97853.16;;;7.82;34.40
67397;BME280;57728;50.448;18.824;2023-03-19T00:02:15;97922.16;;;8.25;34.50
67397;BME280;57728;50.448;18.824;2023-03-19T00:04:17;97895.97;;;8.05;34.47
67397;BME280;57728;50.448;18.824;2023-03-19T00:06:18;97906.78;;;8.12;34.44
67397;BME280;57728;50.448;18.824;2023-03-19T00:08:20;97868.38;;;7.83;34.56
67397;BME280;57728;50.448;18.824;2023-03-19T00:10:23;97918.47;;;8.13;34.53
67397;BME280;57728;50.448;18.824;2023-03-19T00:12:24;97934.47;;;8.21;34.56
67397;BME280;57728;50.448;18.824;2023-03-19T00:14:26;97846.19;;;7.61;34.52
67397;BME280;57728;50.448;18.824;2023-03-19T00:16:28;97813.78;;;7.41;34.55
67397;BME280;57728;50.448;18.824;2023-03-19T00:18:30;97873.63;;;7.78;34.66
67397;BME280;57728;50.448;18.824;2023-03-19T00:20:32;97933.09;;;8.12;34.59
67397;BME280;57728;50.448;18.824;2023-03-19T00:22:34;97905.25;;;7.91;34.63
67397;BME280;57728;50.448;18.824;2023-03-19T00:24:35;97929.38;;;8.06;34.76
67397;BME280;57728;50.448;18.824;2023-03-19T00:26:37;97899.25;;;7.82;34.82
67397;BME280;57728;50.448;18.824;2023-03-19T00:28:38;97910.69;;;7.84;34.70
67397;BME280;57728;50.448;18.824;2023-03-19T00:30:40;97850.63;;;7.49;34.58
67397;BME280;57728;50.448;18.824;2023-03-19T00:32:43;97883.25;;;7.67;34.76
67397;BME280;57728;50.448;18.824;2023-03-19T00:34:44;97894.06;;;7.74;34.64
67397;BME280;57728;50.448;18.824;2023-03-19T00:36:45;97902.81;;;7.76;34.62
67397;BME280;57728;50.448;18.824;2023-03-19T00:38:48;97923.81;;;7.87;34.71
67397;BME280;57728;50.448;18.824;2023-03-19T00:40:49;97901.38;;;7.73;34.71
67397;BME280;57728;50.448;18.824;2023-03-19T00:42:51;97922.16;;;7.86;34.64
67397;BME280;57728;50.448;18.824;2023-03-19T00:44:54;97880.78;;;7.59;34.78
67397;BME280;57728;50.448;18.824;2023-03-19T00:46:58;97924.03;;;7.86;34.76
67397;BME280;57728;50.448;18.824;2023-03-19T00:49:00;97930.28;;;7.86;34.76
67397;BME280;57728;50.448;18.824;2023-03-19T00:51:07;97908.22;;;7.76;34.93
67397;BME280;57728;50.448;18.824;2023-03-19T00:53:10;97920.72;;;7.84;35.03
67397;BME280;57728;50.448;18.824;2023-03-19T00:55:11;97907.03;;;7.65;34.96
67397;BME280;57728;50.448;18.824;2023-03-19T00:57:13;97808.28;;;7.09;35.10
67397;BME280;57728;50.448;18.824;2023-03-19T00:59:15;97930.91;;;7.82;35.16
67397;BME280;57728;50.448;18.824;2023-03-19T01:01:18;97927.38;;;7.81;35.22
67397;BME280;57728;50.448;18.824;2023-03-19T01:03:20;97902.88;;;7.63;35.18
67397;BME280;57728;50.448;18.824;2023-03-19T01:05:21;97916.63;;;7.68;35.39
67397;BME280;57728;50.448;18.824;2023-03-19T01:07:23;97908.72;;;7.60;35.63
67397;BME280;57728;50.448;18.824;2023-03-19T01:09:26;97908.28;;;7.63;35.66
67397;BME280;57728;50.448;18.824;2023-03-19T01:11:27;97901.44;;;7.53;35.80
67397;BME280;57728;50.448;18.824;2023-03-19T01:13:29;97924.31;;;7.71;35.89
67397;BME280;57728;50.448;18.824;2023-03-19T01:15:37;97909.16;;;7.56;35.95
67397;BME280;57728;50.448;18.824;2023-03-19T01:17:40;97932.44;;;7.71;36.23
67397;BME280;57728;50.448;18.824;2023-03-19T01:19:42;97911.88;;;7.50;36.37
67397;BME280;57728;50.448;18.824;2023-03-19T01:21:44;97868.41;;;7.31;36.37
67397;BME280;57728;50.448;18.824;2023-03-19T01:23:48;97894.78;;;7.49;36.45
67397;BME280;57728;50.448;18.824;2023-03-19T01:25:52;97855.31;;;7.21;36.56
67397;BME280;57728;50.448;18.824;2023-03-19T01:27:55;97852.84;;;7.20;36.67
67397;BME280;57728;50.448;18.824;2023-03-19T01:29:57;97760.34;;;6.64;36.88
67397;BME280;57728;50.448;18.824;2023-03-19T01:32:18;97928.50;;;7.67;36.97
67397;BME280;57728;50.448;18.824;2023-03-19T01:34:53;97854.09;;;7.17;37.07
67397;BME280;57728;50.448;18.824;2023-03-19T01:36:54;97908.97;;;7.51;37.13
67397;BME280;57728;50.448;18.824;2023-03-19T01:39:02;97928.09;;;7.63;37.25
67397;BME280;57728;50.448;18.824;2023-03-19T01:41:05;97899.59;;;7.47;37.34
67397;BME280;57728;50.448;18.824;2023-03-19T01:43:18;97924.13;;;7.59;37.31
67397;BME280;57728;50.448;18.824;2023-03-19T01:45:37;97926.69;;;7.54;37.45
67397;BME280;57728;50.448;18.824;2023-03-19T01:47:59;97933.34;;;7.51;37.49
67397;BME280;57728;50.448;18.824;2023-03-19T01:50:31;97925.88;;;7.47;37.68
67397;BME280;57728;50.448;18.824;2023-03-19T01:52:56;97931.28;;;7.47;37.76
67397;BME280;57728;50.448;18.824;2023-03-19T01:55:17;97826.06;;;6.78;38.03
67397;BME280;57728;50.448;18.824;2023-03-19T01:57:35;97905.31;;;7.26;38.03
67397;BME280;57728;50.448;18.824;2023-03-19T02:00:00;97923.41;;;7.32;38.21
67397;BME280;57728;50.448;18.824;2023-03-19T02:02:31;97855.19;;;6.89;38.23
67397;BME280;57728;50.448;18.824;2023-03-19T02:04:50;97856.88;;;6.91;38.43
67397;BME280;57728;50.448;18.824;2023-03-19T02:06:57;97901.34;;;7.21;38.56
67397;BME280;57728;50.448;18.824;2023-03-19T02:09:02;97887.63;;;7.10;38.70
67397;BME280;57728;50.448;18.824;2023-03-19T02:11:04;97703.88;;;5.96;38.66
67397;BME280;57728;50.448;18.824;2023-03-19T02:13:06;97934.88;;;7.34;38.77
67397;BME280;57728;50.448;18.824;2023-03-19T02:15:09;97925.88;;;7.33;38.95
67397;BME280;57728;50.448;18.824;2023-03-19T02:17:12;97921.31;;;7.34;39.15
67397;BME280;57728;50.448;18.824;2023-03-19T02:21:54;97927.13;;;7.31;39.35
67397;BME280;57728;50.448;18.824;2023-03-19T02:24:13;97929.84;;;7.31;39.40
67397;BME280;57728;50.448;18.824;2023-03-19T02:26:41;97892.84;;;7.11;39.51
67397;BME280;57728;50.448;18.824;2023-03-19T02:28:47;97890.31;;;7.10;39.66
67397;BME280;57728;50.448;18.824;2023-03-19T02:30:55;97918.22;;;7.23;39.66
67397;BME280;57728;50.448;18.824;2023-03-19T02:32:59;97931.13;;;7.28;39.88
67397;BME280;57728;50.448;18.824;2023-03-19T02:35:01;97863.13;;;6.84;39.92
67397;BME280;57728;50.448;18.824;2023-03-19T02:37:15;97865.84;;;6.84;39.97
67397;BME280;57728;50.448;18.824;2023-03-19T02:39:30;97932.16;;;7.20;40.13
67397;BME280;57728;50.448;18.824;2023-03-19T02:41:40;97928.22;;;7.16;40.29
67397;BME280;57728;50.448;18.824;2023-03-19T02:43:42;97926.75;;;7.14;40.36
67397;BME280;57728;50.448;18.824;2023-03-19T02:45:44;97856.47;;;6.67;40.45
67397;BME280;57728;50.448;18.824;2023-03-19T02:47:46;97920.53;;;7.06;40.82
67397;BME280;57728;50.448;18.824;2023-03-19T02:49:48;97854.63;;;6.61;41.01
67397;BME280;57728;50.448;18.824;2023-03-19T02:51:49;97889.56;;;6.82;41.15
67397;BME280;57728;50.448;18.824;2023-03-19T02:53:52;97926.38;;;6.97;41.47
67397;BME280;57728;50.448;18.824;2023-03-19T02:55:53;97897.88;;;6.74;41.50
67397;BME280;57728;50.448;18.824;2023-03-19T02:57:55;97877.72;;;6.63;41.83
67397;BME280;57728;50.448;18.824;2023-03-19T02:59:57;97761.25;;;5.84;41.94
67397;BME280;57728;50.448;18.824;2023-03-19T03:01:59;97882.72;;;6.60;41.98
67397;BME280;57728;50.448;18.824;2023-03-19T03:04:01;97932.63;;;6.91;42.29
67397;BME280;57728;50.448;18.824;2023-03-19T03:06:03;97839.66;;;6.18;42.31
67397;BME280;57728;50.448;18.824;2023-03-19T03:08:04;97758.34;;;5.73;42.55
67397;BME280;57728;50.448;18.824;2023-03-19T03:10:06;97949.31;;;6.87;42.66
67397;BME280;57728;50.448;18.824;2023-03-19T03:12:09;97942.84;;;6.88;42.63
67397;BME280;57728;50.448;18.824;2023-03-19T03:14:10;97945.56;;;6.88;42.60
67397;BME280;57728;50.448;18.824;2023-03-19T03:16:12;97890.59;;;6.54;42.63
67397;BME280;57728;50.448;18.824;2023-03-19T03:18:14;97788.06;;;5.93;42.87
67397;BME280;57728;50.448;18.824;2023-03-19T03:20:17;97901.84;;;6.65;42.85
67397;BME280;57728;50.448;18.824;2023-03-19T03:22:19;97891.47;;;6.55;43.05
67397;BME280;57728;50.448;18.824;2023-03-19T03:24:22;97933.88;;;6.81;43.04
67397;BME280;57728;50.448;18.824;2023-03-19T03:26:24;97941.78;;;6.89;43.20
67397;BME280;57728;50.448;18.824;2023-03-19T03:28:25;97853.59;;;6.35;43.32
67397;BME280;57728;50.448;18.824;2023-03-19T03:30:27;97946.38;;;6.89;43.27
67397;BME280;57728;50.448;18.824;2023-03-19T03:32:29;97952.00;;;6.87;43.39
67397;BME280;57728;50.448;18.824;2023-03-19T03:34:31;97928.06;;;6.71;43.44
67397;BME280;57728;50.448;18.824;2023-03-19T03:36:33;97948.88;;;6.84;43.58
67397;BME280;57728;50.448;18.824;2023-03-19T03:38:35;97953.88;;;6.80;43.61
67397;BME280;57728;50.448;18.824;2023-03-19T03:40:36;97948.88;;;6.77;43.80
67397;BME280;57728;50.448;18.824;2023-03-19T03:42:38;97887.69;;;6.36;43.86
67397;BME280;57728;50.448;18.824;2023-03-19T03:44:42;97913.72;;;6.50;43.93
67397;BME280;57728;50.448;18.824;2023-03-19T03:46:43;97885.81;;;6.30;44.12
67397;BME280;57728;50.448;18.824;2023-03-19T03:48:46;97941.78;;;6.63;44.24
67397;BME280;57728;50.448;18.824;2023-03-19T03:50:49;97880.22;;;6.18;44.25
67397;BME280;57728;50.448;18.824;2023-03-19T03:52:55;97941.41;;;6.59;44.46
67397;BME280;57728;50.448;18.824;2023-03-19T03:54:58;97937.03;;;6.58;44.58
67397;BME280;57728;50.448;18.824;2023-03-19T03:57:00;97929.31;;;6.48;44.54
67397;BME280;57728;50.448;18.824;2023-03-19T03:59:02;97942.63;;;6.57;44.69
67397;BME280;57728;50.448;18.824;2023-03-19T04:01:04;97900.81;;;6.32;44.90
67397;BME280;57728;50.448;18.824;2023-03-19T04:03:07;97944.69;;;6.54;45.12
67397;BME280;57728;50.448;18.824;2023-03-19T04:05:09;97917.44;;;6.36;45.24
67397;BME280;57728;50.448;18.824;2023-03-19T04:07:11;97786.97;;;5.60;45.06
67397;BME280;57728;50.448;18.824;2023-03-19T04:09:16;97950.75;;;6.57;45.22
67397;BME280;57728;50.448;18.824;2023-03-19T04:11:19;97933.69;;;6.56;45.38
67397;BME280;57728;50.448;18.824;2023-03-19T04:13:21;97905.59;;;6.37;45.47
67397;BME280;57728;50.448;18.824;2023-03-19T04:15:23;97923.50;;;6.38;45.43
67397;BME280;57728;50.448;18.824;2023-03-19T04:17:26;97887.91;;;6.28;45.63
67397;BME280;57728;50.448;18.824;2023-03-19T04:19:30;97946.78;;;6.52;45.66
67397;BME280;57728;50.448;18.824;2023-03-19T04:21:32;97945.13;;;6.51;45.83
67397;BME280;57728;50.448;18.824;2023-03-19T04:23:34;97941.81;;;6.49;45.70
67397;BME280;57728;50.448;18.824;2023-03-19T04:25:38;97949.28;;;6.47;45.85
67397;BME280;57728;50.448;18.824;2023-03-19T04:27:41;97888.09;;;6.06;45.89
67397;BME280;57728;50.448;18.824;2023-03-19T04:29:43;97939.28;;;6.34;46.13
67397;BME280;57728;50.448;18.824;2023-03-19T04:31:47;97945.72;;;6.40;46.32
67397;BME280;57728;50.448;18.824;2023-03-19T04:33:48;97914.50;;;6.17;46.41
67397;BME280;57728;50.448;18.824;2023-03-19T04:35:50;97910.34;;;6.15;46.44
67397;BME280;57728;50.448;18.824;2023-03-19T04:37:53;97940.13;;;6.35;46.77
67397;BME280;57728;50.448;18.824;2023-03-19T04:39:55;97846.44;;;5.80;47.00
67397;BME280;57728;50.448;18.824;2023-03-19T04:41:57;97916.63;;;6.22;47.22
67397;BME280;57728;50.448;18.824;2023-03-19T04:44:08;97908.06;;;6.18;47.26
67397;BME280;57728;50.448;18.824;2023-03-19T04:46:12;97906.84;;;6.21;47.21
67397;BME280;57728;50.448;18.824;2023-03-19T04:48:15;97904.75;;;6.16;47.33
67397;BME280;57728;50.448;18.824;2023-03-19T04:50:19;97881.00;;;5.98;47.59
67397;BME280;57728;50.448;18.824;2023-03-19T04:52:20;97921.41;;;6.33;47.52
67397;BME280;57728;50.448;18.824;2023-03-19T04:54:23;97901.84;;;6.18;47.73
67397;BME280;57728;50.448;18.824;2023-03-19T04:56:26;97866.22;;;5.94;47.71
67397;BME280;57728;50.448;18.824;2023-03-19T04:58:28;97933.25;;;6.32;47.83
67397;BME280;57728;50.448;18.824;2023-03-19T05:00:34;97921.81;;;6.24;47.95
67397;BME280;57728;50.448;18.824;2023-03-19T05:02:37;97920.13;;;6.23;48.02
67397;BME280;57728;50.448;18.824;2023-03-19T05:04:38;97877.47;;;5.98;48.15
67397;BME280;57728;50.448;18.824;2023-03-19T05:06:44;97891.63;;;6.13;48.19
67397;BME280;57728;50.448;18.824;2023-03-19T05:08:46;97928.06;;;6.31;48.44
67397;BME280;57728;50.448;18.824;2023-03-19T05:10:50;97935.09;;;6.32;48.62
67397;BME280;57728;50.448;18.824;2023-03-19T05:12:55;97932.03;;;6.35;48.66
67397;BME280;57728;50.448;18.824;2023-03-19T05:14:57;97913.91;;;6.29;48.59
67397;BME280;57728;50.448;18.824;2023-03-19T05:17:06;97879.78;;;6.01;48.72
67397;BME280;57728;50.448;18.824;2023-03-19T05:19:28;97938.06;;;6.44;48.79
67397;BME280;57728;50.448;18.824;2023-03-19T05:21:30;97912.88;;;6.30;48.82
67397;BME280;57728;50.448;18.824;2023-03-19T05:23:32;97869.81;;;6.08;48.84
67397;BME280;57728;50.448;18.824;2023-03-19T05:25:39;97907.25;;;6.31;49.01
67397;BME280;57728;50.448;18.824;2023-03-19T05:27:45;97925.97;;;6.53;48.99
67397;BME280;57728;50.448;18.824;2023-03-19T05:29:53;97857.75;;;6.11;48.89
67397;BME280;57728;50.448;18.824;2023-03-19T05:32:20;97931.41;;;6.60;49.05
67397;BME280;57728;50.448;18.824;2023-03-19T05:34:22;97934.75;;;6.62;48.91
67397;BME280;57728;50.448;18.824;2023-03-19T05:36:24;97939.72;;;6.65;48.82
67397;BME280;57728;50.448;18.824;2023-03-19T05:38:32;97885.19;;;6.34;48.95
67397;BME280;57728;50.448;18.824;2023-03-19T05:40:40;97941.59;;;6.71;49.13
67397;BME280;57728;50.448;18.824;2023-03-19T05:42:55;97904.13;;;6.54;49.01
67397;BME280;57728;50.448;18.824;2023-03-19T05:44:59;97904.34;;;6.60;49.06
67397;BME280;57728;50.448;18.824;2023-03-19T05:47:10;97934.94;;;6.80;49.07
67397;BME280;57728;50.448;18.824;2023-03-19T05:49:14;97931.59;;;6.92;48.92
67397;BME280;57728;50.448;18.824;2023-03-19T05:51:16;97914.94;;;6.81;48.87
67397;BME280;57728;50.448;18.824;2023-03-19T05:53:20;97940.13;;;7.02;48.97
67397;BME280;57728;50.448;18.824;2023-03-19T05:55:49;97915.75;;;6.95;48.88
67397;BME280;57728;50.448;18.824;2023-03-19T05:57:52;97913.28;;;6.94;48.80
67397;BME280;57728;50.448;18.824;2023-03-19T06:00:03;97867.09;;;6.68;48.81
67397;BME280;57728;50.448;18.824;2023-03-19T06:02:06;97946.75;;;7.19;48.88
67397;BME280;57728;50.448;18.824;2023-03-19T06:04:08;97943.66;;;7.22;48.84
67397;BME280;57728;50.448;18.824;2023-03-19T06:06:12;97885.81;;;6.90;48.82
67397;BME280;57728;50.448;18.824;2023-03-19T06:08:18;97856.25;;;6.75;48.73
67397;BME280;57728;50.448;18.824;2023-03-19T06:10:43;97885.56;;;7.05;48.67
67397;BME280;57728;50.448;18.824;2023-03-19T06:12:46;97825.47;;;6.69;48.58
67397;BME280;57728;50.448;18.824;2023-03-19T06:15:06;97849.34;;;6.93;48.69
67397;BME280;57728;50.448;18.824;2023-03-19T06:17:34;97892.81;;;7.25;48.55
67397;BME280;57728;50.448;18.824;2023-03-19T06:19:41;97920.41;;;7.53;48.59
67397;BME280;57728;50.448;18.824;2023-03-19T06:21:42;97918.53;;;7.61;48.57
67397;BME280;57728;50.448;18.824;2023-03-19T06:23:43;97954.91;;;7.85;48.45
67397;BME280;57728;50.448;18.824;2023-03-19T06:25:49;97956.53;;;7.92;48.36
67397;BME280;57728;50.448;18.824;2023-03-19T06:27:51;97963.78;;;7.99;48.33
67397;BME280;57728;50.448;18.824;2023-03-19T06:29:59;97959.78;;;8.08;48.25
67397;BME280;57728;50.448;18.824;2023-03-19T06:32:07;97956.38;;;8.19;48.07
67397;BME280;57728;50.448;18.824;2023-03-19T06:34:14;97963.63;;;8.32;48.10
67397;BME280;57728;50.448;18.824;2023-03-19T06:36:17;97934.22;;;8.29;48.00
67397;BME280;57728;50.448;18.824;2023-03-19T06:38:19;97909.59;;;8.31;48.03
67397;BME280;57728;50.448;18.824;2023-03-19T06:40:21;97880.63;;;8.24;47.76
67397;BME280;57728;50.448;18.824;2023-03-19T06:42:22;97928.94;;;8.73;47.64
67397;BME280;57728;50.448;18.824;2023-03-19T06:44:25;97946.53;;;8.89;47.42
67397;BME280;57728;50.448;18.824;2023-03-19T06:46:26;97961.53;;;9.17;47.33
67397;BME280;57728;50.448;18.824;2023-03-19T06:48:28;97964.78;;;9.25;47.15
67397;BME280;57728;50.448;18.824;2023-03-19T06:50:30;97885.75;;;8.90;47.17
67397;BME280;57728;50.448;18.824;2023-03-19T06:52:31;97938.31;;;9.39;47.07
67397;BME280;57728;50.448;18.824;2023-03-19T06:54:33;97918.31;;;9.34;47.02
67397;BME280;57728;50.448;18.824;2023-03-19T06:56:35;97873.19;;;9.14;46.89
67397;BME280;57728;50.448;18.824;2023-03-19T06:58:36;97968.22;;;9.76;46.82
67397;BME280;57728;50.448;18.824;2023-03-19T07:00:37;97910.00;;;9.47;46.43
67397;BME280;57728;50.448;18.824;2023-03-19T07:02:40;97944.44;;;9.72;46.50
67397;BME280;57728;50.448;18.824;2023-03-19T07:04:41;97919.53;;;9.56;46.10
67397;BME280;57728;50.448;18.824;2023-03-19T07:06:42;97949.66;;;9.73;46.28
67397;BME280;57728;50.448;18.824;2023-03-19T07:08:45;97930.09;;;9.64;46.36
67397;BME280;57728;50.448;18.824;2023-03-19T07:10:46;97966.19;;;9.90;46.03
67397;BME280;57728;50.448;18.824;2023-03-19T07:12:47;97965.34;;;9.90;45.85
67397;BME280;57728;50.448;18.824;2023-03-19T07:14:49;97968.44;;;9.93;45.80
67397;BME280;57728;50.448;18.824;2023-03-19T07:16:51;97967.38;;;9.94;45.89
67397;BME280;57728;50.448;18.824;2023-03-19T07:18:52;97975.69;;;10.00;45.78
67397;BME280;57728;50.448;18.824;2023-03-19T07:20:54;97949.47;;;9.87;45.84
67397;BME280;57728;50.448;18.824;2023-03-19T07:22:56;97962.19;;;9.93;45.53
67397;BME280;57728;50.448;18.824;2023-03-19T07:24:57;97922.81;;;9.77;45.32
67397;BME280;57728;50.448;18.824;2023-03-19T07:26:59;97963.50;;;10.02;45.53
67397;BME280;57728;50.448;18.824;2023-03-19T07:29:00;97975.06;;;10.16;45.38
67397;BME280;57728;50.448;18.824;2023-03-19T07:31:02;97943.06;;;10.00;45.31
67397;BME280;57728;50.448;18.824;2023-03-19T07:33:06;97879.03;;;9.67;45.07
67397;BME280;57728;50.448;18.824;2023-03-19T07:35:08;97939.09;;;10.14;45.26
67397;BME280;57728;50.448;18.824;2023-03-19T07:37:10;97908.28;;;10.02;45.01
67397;BME280;57728;50.448;18.824;2023-03-19T07:39:16;97918.47;;;10.06;44.80
67397;BME280;57728;50.448;18.824;2023-03-19T07:41:17;97977.69;;;10.41;44.45
67397;BME280;57728;50.448;18.824;2023-03-19T07:43:19;97947.59;;;10.36;44.59
67397;BME280;57728;50.448;18.824;2023-03-19T07:45:21;97931.50;;;10.35;44.58
67397;BME280;57728;50.448;18.824;2023-03-19T07:47:22;97915.84;;;10.30;44.54
67397;BME280;57728;50.448;18.824;2023-03-19T07:49:24;97889.66;;;10.17;44.28
67397;BME280;57728;50.448;18.824;2023-03-19T07:51:26;97970.31;;;10.72;44.27
67397;BME280;57728;50.448;18.824;2023-03-19T07:53:28;97974.00;;;10.78;44.23
67397;BME280;57728;50.448;18.824;2023-03-19T07:55:29;97918.53;;;10.48;44.12
67397;BME280;57728;50.448;18.824;2023-03-19T07:57:32;97915.31;;;10.40;43.97
67397;BME280;57728;50.448;18.824;2023-03-19T07:59:36;97965.34;;;10.81;43.74
67397;BME280;57728;50.448;18.824;2023-03-19T08:01:37;97963.13;;;10.90;43.71
67397;BME280;57728;50.448;18.824;2023-03-19T08:03:39;97969.19;;;11.04;43.50
67397;BME280;57728;50.448;18.824;2023-03-19T08:05:41;97966.59;;;11.09;43.27
67397;BME280;57728;50.448;18.824;2023-03-19T08:07:42;97969.19;;;11.27;43.00
67397;BME280;57728;50.448;18.824;2023-03-19T08:09:45;97911.13;;;10.91;42.59
67397;BME280;57728;50.448;18.824;2023-03-19T08:11:47;97892.78;;;10.98;42.64
67397;BME280;57728;50.448;18.824;2023-03-19T08:13:48;97972.16;;;11.49;42.42
67397;BME280;57728;50.448;18.824;2023-03-19T08:15:50;97969.78;;;11.53;42.38
67397;BME280;57728;50.448;18.824;2023-03-19T08:18:00;97937.69;;;11.31;42.32
67397;BME280;57728;50.448;18.824;2023-03-19T08:20:09;97936.72;;;11.38;42.06
67397;BME280;57728;50.448;18.824;2023-03-19T08:22:15;97940.16;;;11.45;42.07
67397;BME280;57728;50.448;18.824;2023-03-19T08:24:20;97907.09;;;11.29;42.58
67397;BME280;57728;50.448;18.824;2023-03-19T08:26:21;97929.22;;;11.68;42.23
67397;BME280;57728;50.448;18.824;2023-03-19T08:28:23;97932.97;;;11.79;42.05
67397;BME280;57728;50.448;18.824;2023-03-19T08:30:25;97947.97;;;12.06;41.77
67397;BME280;57728;50.448;18.824;2023-03-19T08:32:26;97870.53;;;11.66;41.67
67397;BME280;57728;50.448;18.824;2023-03-19T08:34:28;97953.75;;;12.50;41.40
67397;BME280;57728;50.448;18.824;2023-03-19T08:36:30;97933.50;;;12.63;41.12
67397;BME280;57728;50.448;18.824;2023-03-19T08:38:32;97941.13;;;12.95;40.46
67397;BME280;57728;50.448;18.824;2023-03-19T08:40:34;97940.44;;;13.21;40.00
67397;BME280;57728;50.448;18.824;2023-03-19T08:42:37;97888.66;;;13.15;38.97
67397;BME280;57728;50.448;18.824;2023-03-19T08:44:41;97963.22;;;14.05;38.53
67397;BME280;57728;50.448;18.824;2023-03-19T08:46:44;97964.88;;;14.56;38.44
67397;BME280;57728;50.448;18.824;2023-03-19T08:48:46;97960.75;;;15.13;37.22
67397;BME280;57728;50.448;18.824;2023-03-19T08:50:59;97935.00;;;15.62;37.03
67397;BME280;57728;50.448;18.824;2023-03-19T08:53:03;97956.75;;;16.37;35.97
67397;BME280;57728;50.448;18.824;2023-03-19T08:55:05;97882.63;;;16.58;34.69
67397;BME280;57728;50.448;18.824;2023-03-19T08:57:07;97915.63;;;17.30;34.69
67397;BME280;57728;50.448;18.824;2023-03-19T08:59:09;97862.22;;;17.41;33.01
67397;BME280;57728;50.448;18.824;2023-03-19T09:01:13;97906.28;;;18.17;33.24
67397;BME280;57728;50.448;18.824;2023-03-19T09:03:16;97955.69;;;18.98;32.91
67397;BME280;57728;50.448;18.824;2023-03-19T09:05:18;97895.56;;;18.95;32.05
67397;BME280;57728;50.448;18.824;2023-03-19T09:07:24;97900.84;;;18.91;30.91
67397;BME280;57728;50.448;18.824;2023-03-19T09:09:25;97943.47;;;19.04;30.66
67397;BME280;57728;50.448;18.824;2023-03-19T09:11:28;97857.22;;;18.19;30.93
67397;BME280;57728;50.448;18.824;2023-03-19T09:13:30;97902.31;;;18.33;30.12
67397;BME280;57728;50.448;18.824;2023-03-19T09:15:31;97937.63;;;18.26;29.94
67397;BME280;57728;50.448;18.824;2023-03-19T09:17:33;97939.16;;;17.87;29.95
67397;BME280;57728;50.448;18.824;2023-03-19T09:19:35;97918.34;;;17.45;30.73
67397;BME280;57728;50.448;18.824;2023-03-19T09:21:39;97907.66;;;17.18;30.97
67397;BME280;57728;50.448;18.824;2023-03-19T09:23:41;97889.22;;;16.88;31.22
67397;BME280;57728;50.448;18.824;2023-03-19T09:25:43;97900.78;;;16.84;31.01
67397;BME280;57728;50.448;18.824;2023-03-19T09:27:44;97911.22;;;16.98;31.42
67397;BME280;57728;50.448;18.824;2023-03-19T09:29:46;97913.41;;;17.22;31.25
67397;BME280;57728;50.448;18.824;2023-03-19T09:31:47;97926.31;;;17.52;31.21
67397;BME280;57728;50.448;18.824;2023-03-19T09:33:49;97835.25;;;17.33;30.71
67397;BME280;57728;50.448;18.824;2023-03-19T09:35:52;97942.47;;;18.45;30.72
67397;BME280;57728;50.448;18.824;2023-03-19T09:37:54;97948.63;;;18.76;30.06
67397;BME280;57728;50.448;18.824;2023-03-19T09:39:55;97902.59;;;18.71;29.50
67397;BME280;57728;50.448;18.824;2023-03-19T09:44:45;97914.72;;;18.31;29.61
67397;BME280;57728;50.448;18.824;2023-03-19T09:47:07;97947.00;;;18.75;29.85
67397;BME280;57728;50.448;18.824;2023-03-19T09:49:32;97917.59;;;19.29;29.77
67397;BME280;57728;50.448;18.824;2023-03-19T09:54:07;97875.09;;;20.03;28.84
67397;BME280;57728;50.448;18.824;2023-03-19T09:56:24;97894.38;;;20.27;28.34
67397;BME280;57728;50.448;18.824;2023-03-19T09:58:35;97867.53;;;19.89;28.06
67397;BME280;57728;50.448;18.824;2023-03-19T10:00:38;97936.47;;;20.00;27.74
67397;BME280;57728;50.448;18.824;2023-03-19T10:02:42;97935.59;;;19.80;28.33
67397;BME280;57728;50.448;18.824;2023-03-19T10:15:32;97934.00;;;18.36;29.52
67397;BME280;57728;50.448;18.824;2023-03-19T10:18:06;97880.50;;;17.92;29.32
67397;BME280;57728;50.448;18.824;2023-03-19T10:22:43;97884.38;;;17.76;30.18
67397;BME280;57728;50.448;18.824;2023-03-19T10:24:49;97921.59;;;18.38;30.04
67397;BME280;57728;50.448;18.824;2023-03-19T10:26:59;97904.56;;;18.66;29.39
67397;BME280;57728;50.448;18.824;2023-03-19T10:29:13;97920.81;;;19.07;28.94
67397;BME280;57728;50.448;18.824;2023-03-19T10:31:33;97925.13;;;19.18;28.81
67397;BME280;57728;50.448;18.824;2023-03-19T10:36:26;97882.50;;;19.35;28.15
67397;BME280;57728;50.448;18.824;2023-03-19T10:38:39;97850.19;;;19.35;27.79
67397;BME280;57728;50.448;18.824;2023-03-19T10:43:24;97876.00;;;19.98;27.71
67397;BME280;57728;50.448;18.824;2023-03-19T10:45:35;97907.69;;;20.44;27.54
67397;BME280;57728;50.448;18.824;2023-03-19T10:47:39;97902.25;;;20.58;27.46
67397;BME280;57728;50.448;18.824;2023-03-19T10:49:42;97722.81;;;19.47;27.38
67397;BME280;57728;50.448;18.824;2023-03-19T10:51:47;97898.97;;;20.56;26.99
67397;BME280;57728;50.448;18.824;2023-03-19T10:53:52;97894.34;;;20.70;26.85
67397;BME280;57728;50.448;18.824;2023-03-19T10:56:00;97889.00;;;20.93;27.01
67397;BME280;57728;50.448;18.824;2023-03-19T10:58:18;97859.97;;;21.37;26.52
67397;BME280;57728;50.448;18.824;2023-03-19T11:00:24;97870.88;;;21.89;26.14
67397;BME280;57728;50.448;18.824;2023-03-19T11:02:29;97872.41;;;22.09;25.68
67397;BME280;57728;50.448;18.824;2023-03-19T11:04:32;97883.16;;;22.39;25.84
67397;BME280;57728;50.448;18.824;2023-03-19T11:06:36;97873.09;;;22.43;25.50
67397;BME280;57728;50.448;18.824;2023-03-19T11:08:38;97851.91;;;22.47;25.03
67397;BME280;57728;50.448;18.824;2023-03-19T11:10:46;97869.00;;;22.86;25.16
67397;BME280;57728;50.448;18.824;2023-03-19T11:12:58;97867.88;;;23.09;24.42
67397;BME280;57728;50.448;18.824;2023-03-19T11:15:30;97816.22;;;22.54;24.06
67397;BME280;57728;50.448;18.824;2023-03-19T11:17:47;97797.72;;;22.27;24.41
67397;BME280;57728;50.448;18.824;2023-03-19T11:19:58;97864.91;;;22.60;24.53
67397;BME280;57728;50.448;18.824;2023-03-19T11:24:41;97796.47;;;21.96;24.47
67397;BME280;57728;50.448;18.824;2023-03-19T11:26:56;97853.03;;;22.32;24.59
67397;BME280;57728;50.448;18.824;2023-03-19T11:29:03;97835.84;;;22.21;24.39